sensor_id;sensor_type;location;lat;lon;timestamp;P1;durP1;ratioP1;P2;durP2;ratioP2
36411;SDS011;22445;52.100;5.176;2023-04-25T00:00:32;10.30;;;3.72;;
36411;SDS011;22445;52.100;5.176;2023-04-25T00:02:57;14.57;;;4.32;;
36411;SDS011;22445;52.100;5.176;2023-04-25T00:05:25;8.45;;;3.78;;
36411;SDS011;22445;52.100;5.176;2023-04-25T00:07:51;18.63;;;4.47;;
36411;SDS011;22445;52.100;5.176;2023-04-25T00:10:17;17.58;;;4.47;;
36411;SDS011;22445;52.100;5.176;2023-04-25T00:12:42;15.07;;;4.68;;
36411;SDS011;22445;52.100;5.176;2023-04-25T00:15:08;18.58;;;4.90;;
36411;SDS011;22445;52.100;5.176;2023-04-25T00:17:34;11.23;;;4.10;;
36411;SDS011;22445;52.100;5.176;2023-04-25T00:20:00;12.52;;;4.32;;
36411;SDS011;22445;52.100;5.176;2023-04-25T00:22:30;20.65;;;4.50;;
36411;SDS011;22445;52.100;5.176;2023-04-25T00:24:56;13.25;;;3.88;;
36411;SDS011;22445;52.100;5.176;2023-04-25T00:27:25;17.80;;;4.25;;
36411;SDS011;22445;52.100;5.176;2023-04-25T00:29:51;12.55;;;4.05;;
36411;SDS011;22445;52.100;5.176;2023-04-25T00:32:16;13.15;;;3.40;;
36411;SDS011;22445;52.100;5.176;2023-04-25T00:34:42;12.13;;;3.60;;
36411;SDS011;22445;52.100;5.176;2023-04-25T00:37:07;15.57;;;3.60;;
36411;SDS011;22445;52.100;5.176;2023-04-25T00:39:33;14.18;;;3.40;;
36411;SDS011;22445;52.100;5.176;2023-04-25T00:41:58;11.05;;;2.90;;
36411;SDS011;22445;52.100;5.176;2023-04-25T00:44:24;10.63;;;3.15;;
36411;SDS011;22445;52.100;5.176;2023-04-25T00:46:50;7.82;;;3.30;;
36411;SDS011;22445;52.100;5.176;2023-04-25T00:49:15;9.15;;;2.83;;
36411;SDS011;22445;52.100;5.176;2023-04-25T00:51:42;9.50;;;3.25;;
36411;SDS011;22445;52.100;5.176;2023-04-25T00:54:10;12.77;;;3.28;;
36411;SDS011;22445;52.100;5.176;2023-04-25T00:56:37;10.57;;;3.90;;
36411;SDS011;22445;52.100;5.176;2023-04-25T00:59:03;12.82;;;3.45;;
36411;SDS011;22445;52.100;5.176;2023-04-25T01:01:29;10.25;;;3.20;;
36411;SDS011;22445;52.100;5.176;2023-04-25T01:03:56;14.38;;;3.08;;
36411;SDS011;22445;52.100;5.176;2023-04-25T01:06:23;11.02;;;3.47;;
36411;SDS011;22445;52.100;5.176;2023-04-25T01:08:49;12.60;;;3.67;;
36411;SDS011;22445;52.100;5.176;2023-04-25T01:11:14;7.78;;;2.88;;
36411;SDS011;22445;52.100;5.176;2023-04-25T01:13:40;15.70;;;3.75;;
36411;SDS011;22445;52.100;5.176;2023-04-25T01:16:05;6.35;;;2.97;;
36411;SDS011;22445;52.100;5.176;2023-04-25T01:18:31;8.07;;;3.58;;
36411;SDS011;22445;52.100;5.176;2023-04-25T01:21:02;13.43;;;3.80;;
36411;SDS011;22445;52.100;5.176;2023-04-25T01:23:41;10.50;;;2.70;;
36411;SDS011;22445;52.100;5.176;2023-04-25T01:26:10;10.27;;;2.67;;
36411;SDS011;22445;52.100;5.176;2023-04-25T01:28:37;9.57;;;3.70;;
36411;SDS011;22445;52.100;5.176;2023-04-25T01:31:06;13.05;;;2.92;;
36411;SDS011;22445;52.100;5.176;2023-04-25T01:33:32;11.18;;;2.65;;
36411;SDS011;22445;52.100;5.176;2023-04-25T01:35:57;6.80;;;3.20;;
36411;SDS011;22445;52.100;5.176;2023-04-25T01:38:23;11.27;;;3.53;;
36411;SDS011;22445;52.100;5.176;2023-04-25T01:40:49;9.55;;;3.00;;
36411;SDS011;22445;52.100;5.176;2023-04-25T01:43:16;12.25;;;3.33;;
36411;SDS011;22445;52.100;5.176;2023-04-25T01:45:42;8.65;;;3.53;;
36411;SDS011;22445;52.100;5.176;2023-04-25T01:48:11;17.40;;;3.58;;
36411;SDS011;22445;52.100;5.176;2023-04-25T01:50:38;14.52;;;3.30;;
36411;SDS011;22445;52.100;5.176;2023-04-25T01:53:04;14.10;;;3.42;;
36411;SDS011;22445;52.100;5.176;2023-04-25T01:55:30;18.73;;;3.92;;
36411;SDS011;22445;52.100;5.176;2023-04-25T01:57:56;11.65;;;3.90;;
36411;SDS011;22445;52.100;5.176;2023-04-25T02:00:21;12.27;;;3.78;;
36411;SDS011;22445;52.100;5.176;2023-04-25T02:02:47;13.40;;;3.25;;
36411;SDS011;22445;52.100;5.176;2023-04-25T02:05:13;10.57;;;3.63;;
36411;SDS011;22445;52.100;5.176;2023-04-25T02:07:39;10.57;;;2.95;;
36411;SDS011;22445;52.100;5.176;2023-04-25T02:10:04;11.15;;;3.05;;
36411;SDS011;22445;52.100;5.176;2023-04-25T02:12:30;6.47;;;2.88;;
36411;SDS011;22445;52.100;5.176;2023-04-25T02:14:56;12.85;;;3.28;;
36411;SDS011;22445;52.100;5.176;2023-04-25T02:17:22;11.20;;;2.95;;
36411;SDS011;22445;52.100;5.176;2023-04-25T02:19:48;11.27;;;3.75;;
36411;SDS011;22445;52.100;5.176;2023-04-25T02:22:14;14.52;;;3.55;;
36411;SDS011;22445;52.100;5.176;2023-04-25T02:24:39;9.73;;;3.03;;
36411;SDS011;22445;52.100;5.176;2023-04-25T02:27:05;14.32;;;4.53;;
36411;SDS011;22445;52.100;5.176;2023-04-25T02:29:31;10.43;;;4.53;;
36411;SDS011;22445;52.100;5.176;2023-04-25T02:31:56;8.23;;;3.53;;
36411;SDS011;22445;52.100;5.176;2023-04-25T02:34:22;13.02;;;2.65;;
36411;SDS011;22445;52.100;5.176;2023-04-25T02:36:48;11.23;;;3.58;;
36411;SDS011;22445;52.100;5.176;2023-04-25T02:39:15;19.70;;;3.55;;
36411;SDS011;22445;52.100;5.176;2023-04-25T02:41:40;11.43;;;3.20;;
36411;SDS011;22445;52.100;5.176;2023-04-25T02:44:06;8.93;;;3.38;;
36411;SDS011;22445;52.100;5.176;2023-04-25T02:46:33;9.63;;;3.30;;
36411;SDS011;22445;52.100;5.176;2023-04-25T02:48:58;12.07;;;3.95;;
36411;SDS011;22445;52.100;5.176;2023-04-25T02:51:24;10.73;;;3.53;;
36411;SDS011;22445;52.100;5.176;2023-04-25T02:53:49;12.68;;;4.25;;
36411;SDS011;22445;52.100;5.176;2023-04-25T02:56:15;13.25;;;3.75;;
36411;SDS011;22445;52.100;5.176;2023-04-25T02:58:41;9.27;;;4.28;;
36411;SDS011;22445;52.100;5.176;2023-04-25T03:01:06;8.30;;;3.00;;
36411;SDS011;22445;52.100;5.176;2023-04-25T03:03:32;16.33;;;3.72;;
36411;SDS011;22445;52.100;5.176;2023-04-25T03:05:57;11.75;;;4.00;;
36411;SDS011;22445;52.100;5.176;2023-04-25T03:08:23;9.65;;;3.85;;
36411;SDS011;22445;52.100;5.176;2023-04-25T03:10:50;18.23;;;3.70;;
36411;SDS011;22445;52.100;5.176;2023-04-25T03:13:17;11.40;;;3.47;;
36411;SDS011;22445;52.100;5.176;2023-04-25T03:15:43;11.90;;;3.92;;
36411;SDS011;22445;52.100;5.176;2023-04-25T03:18:09;15.32;;;3.72;;
36411;SDS011;22445;52.100;5.176;2023-04-25T03:20:34;11.88;;;3.70;;
36411;SDS011;22445;52.100;5.176;2023-04-25T03:23:00;16.48;;;5.28;;
36411;SDS011;22445;52.100;5.176;2023-04-25T03:25:25;17.13;;;4.05;;
36411;SDS011;22445;52.100;5.176;2023-04-25T03:27:51;11.85;;;3.20;;
36411;SDS011;22445;52.100;5.176;2023-04-25T03:30:16;13.88;;;3.08;;
36411;SDS011;22445;52.100;5.176;2023-04-25T03:32:42;16.80;;;2.90;;
36411;SDS011;22445;52.100;5.176;2023-04-25T03:35:08;14.48;;;3.50;;
36411;SDS011;22445;52.100;5.176;2023-04-25T03:37:34;8.43;;;2.67;;
36411;SDS011;22445;52.100;5.176;2023-04-25T03:39:59;14.93;;;2.70;;
36411;SDS011;22445;52.100;5.176;2023-04-25T03:42:25;12.68;;;2.92;;
36411;SDS011;22445;52.100;5.176;2023-04-25T03:44:51;5.63;;;2.58;;
36411;SDS011;22445;52.100;5.176;2023-04-25T03:47:16;9.18;;;2.65;;
36411;SDS011;22445;52.100;5.176;2023-04-25T03:49:42;6.97;;;2.65;;
36411;SDS011;22445;52.100;5.176;2023-04-25T03:52:08;10.05;;;2.85;;
36411;SDS011;22445;52.100;5.176;2023-04-25T03:54:33;11.95;;;2.70;;
36411;SDS011;22445;52.100;5.176;2023-04-25T03:56:59;9.50;;;2.75;;
36411;SDS011;22445;52.100;5.176;2023-04-25T03:59:25;11.63;;;3.33;;
36411;SDS011;22445;52.100;5.176;2023-04-25T04:01:51;6.68;;;2.92;;
36411;SDS011;22445;52.100;5.176;2023-04-25T04:04:17;10.88;;;2.70;;
36411;SDS011;22445;52.100;5.176;2023-04-25T04:06:43;9.45;;;2.67;;
36411;SDS011;22445;52.100;5.176;2023-04-25T04:09:08;7.82;;;2.50;;
36411;SDS011;22445;52.100;5.176;2023-04-25T04:11:36;7.90;;;2.75;;
36411;SDS011;22445;52.100;5.176;2023-04-25T04:14:04;12.38;;;2.58;;
36411;SDS011;22445;52.100;5.176;2023-04-25T04:16:32;5.15;;;2.15;;
36411;SDS011;22445;52.100;5.176;2023-04-25T04:18:58;6.57;;;2.33;;
36411;SDS011;22445;52.100;5.176;2023-04-25T04:21:23;9.38;;;2.40;;
36411;SDS011;22445;52.100;5.176;2023-04-25T04:23:49;10.30;;;2.63;;
36411;SDS011;22445;52.100;5.176;2023-04-25T04:26:14;6.95;;;2.90;;
36411;SDS011;22445;52.100;5.176;2023-04-25T04:28:43;9.13;;;2.60;;
36411;SDS011;22445;52.100;5.176;2023-04-25T04:31:09;8.80;;;2.38;;
36411;SDS011;22445;52.100;5.176;2023-04-25T04:33:35;8.55;;;2.17;;
36411;SDS011;22445;52.100;5.176;2023-04-25T04:36:02;11.13;;;2.90;;
36411;SDS011;22445;52.100;5.176;2023-04-25T04:38:28;10.93;;;2.33;;
36411;SDS011;22445;52.100;5.176;2023-04-25T04:40:54;13.20;;;2.72;;
36411;SDS011;22445;52.100;5.176;2023-04-25T04:43:20;7.05;;;2.38;;
36411;SDS011;22445;52.100;5.176;2023-04-25T04:45:45;8.93;;;2.08;;
36411;SDS011;22445;52.100;5.176;2023-04-25T04:48:11;9.70;;;2.65;;
36411;SDS011;22445;52.100;5.176;2023-04-25T04:50:39;6.40;;;2.05;;
36411;SDS011;22445;52.100;5.176;2023-04-25T04:53:05;9.68;;;2.85;;
36411;SDS011;22445;52.100;5.176;2023-04-25T04:55:31;7.95;;;2.75;;
36411;SDS011;22445;52.100;5.176;2023-04-25T04:57:56;7.97;;;3.05;;
36411;SDS011;22445;52.100;5.176;2023-04-25T05:00:22;8.48;;;3.05;;
36411;SDS011;22445;52.100;5.176;2023-04-25T05:02:47;4.30;;;2.75;;
36411;SDS011;22445;52.100;5.176;2023-04-25T05:05:13;12.40;;;3.42;;
36411;SDS011;22445;52.100;5.176;2023-04-25T05:07:38;5.93;;;2.45;;
36411;SDS011;22445;52.100;5.176;2023-04-25T05:10:04;5.38;;;2.67;;
36411;SDS011;22445;52.100;5.176;2023-04-25T05:12:30;10.63;;;2.88;;
36411;SDS011;22445;52.100;5.176;2023-04-25T05:14:56;9.25;;;3.00;;
36411;SDS011;22445;52.100;5.176;2023-04-25T05:17:21;6.47;;;2.72;;
36411;SDS011;22445;52.100;5.176;2023-04-25T05:19:47;9.55;;;3.15;;
36411;SDS011;22445;52.100;5.176;2023-04-25T05:22:12;5.97;;;2.50;;
36411;SDS011;22445;52.100;5.176;2023-04-25T05:24:38;8.55;;;2.70;;
36411;SDS011;22445;52.100;5.176;2023-04-25T05:27:04;7.90;;;3.05;;
36411;SDS011;22445;52.100;5.176;2023-04-25T05:29:30;13.52;;;2.78;;
36411;SDS011;22445;52.100;5.176;2023-04-25T05:31:56;9.77;;;3.05;;
36411;SDS011;22445;52.100;5.176;2023-04-25T05:34:21;6.80;;;2.50;;
36411;SDS011;22445;52.100;5.176;2023-04-25T05:36:47;7.95;;;2.97;;
36411;SDS011;22445;52.100;5.176;2023-04-25T05:39:16;9.75;;;3.17;;
36411;SDS011;22445;52.100;5.176;2023-04-25T05:41:42;11.45;;;2.72;;
36411;SDS011;22445;52.100;5.176;2023-04-25T05:44:08;8.98;;;3.05;;
36411;SDS011;22445;52.100;5.176;2023-04-25T05:46:34;7.80;;;2.90;;
36411;SDS011;22445;52.100;5.176;2023-04-25T05:48:59;11.98;;;3.42;;
36411;SDS011;22445;52.100;5.176;2023-04-25T05:51:25;11.77;;;3.05;;
36411;SDS011;22445;52.100;5.176;2023-04-25T05:53:51;7.93;;;2.75;;
36411;SDS011;22445;52.100;5.176;2023-04-25T05:56:16;10.77;;;3.70;;
36411;SDS011;22445;52.100;5.176;2023-04-25T05:58:42;6.18;;;2.80;;
36411;SDS011;22445;52.100;5.176;2023-04-25T06:01:07;10.05;;;2.50;;
36411;SDS011;22445;52.100;5.176;2023-04-25T06:03:34;9.90;;;3.00;;
36411;SDS011;22445;52.100;5.176;2023-04-25T06:05:59;7.97;;;2.55;;
36411;SDS011;22445;52.100;5.176;2023-04-25T06:08:25;6.55;;;2.50;;
36411;SDS011;22445;52.100;5.176;2023-04-25T06:10:50;8.10;;;2.80;;
36411;SDS011;22445;52.100;5.176;2023-04-25T06:13:16;8.50;;;2.75;;
36411;SDS011;22445;52.100;5.176;2023-04-25T06:15:41;7.35;;;2.88;;
36411;SDS011;22445;52.100;5.176;2023-04-25T06:18:07;9.13;;;2.60;;
36411;SDS011;22445;52.100;5.176;2023-04-25T06:20:33;8.85;;;2.58;;
36411;SDS011;22445;52.100;5.176;2023-04-25T06:22:58;10.75;;;2.30;;
36411;SDS011;22445;52.100;5.176;2023-04-25T06:25:24;8.55;;;2.28;;
36411;SDS011;22445;52.100;5.176;2023-04-25T06:27:50;8.25;;;2.00;;
36411;SDS011;22445;52.100;5.176;2023-04-25T06:30:15;5.43;;;1.85;;
36411;SDS011;22445;52.100;5.176;2023-04-25T06:32:43;5.57;;;1.75;;
36411;SDS011;22445;52.100;5.176;2023-04-25T06:35:08;9.75;;;2.80;;
36411;SDS011;22445;52.100;5.176;2023-04-25T06:37:35;12.90;;;2.53;;
36411;SDS011;22445;52.100;5.176;2023-04-25T06:40:00;6.75;;;1.58;;
36411;SDS011;22445;52.100;5.176;2023-04-25T06:42:27;7.30;;;1.88;;
36411;SDS011;22445;52.100;5.176;2023-04-25T06:44:55;9.43;;;1.63;;
36411;SDS011;22445;52.100;5.176;2023-04-25T06:47:20;4.85;;;1.17;;
36411;SDS011;22445;52.100;5.176;2023-04-25T06:49:46;9.18;;;1.67;;
36411;SDS011;22445;52.100;5.176;2023-04-25T06:52:12;13.75;;;1.65;;
36411;SDS011;22445;52.100;5.176;2023-04-25T06:54:37;9.85;;;1.50;;
36411;SDS011;22445;52.100;5.176;2023-04-25T06:57:03;8.70;;;1.73;;
36411;SDS011;22445;52.100;5.176;2023-04-25T06:59:28;4.85;;;1.45;;
36411;SDS011;22445;52.100;5.176;2023-04-25T07:01:54;9.23;;;1.40;;
36411;SDS011;22445;52.100;5.176;2023-04-25T07:04:19;5.22;;;1.38;;
36411;SDS011;22445;52.100;5.176;2023-04-25T07:06:45;9.73;;;1.75;;
36411;SDS011;22445;52.100;5.176;2023-04-25T07:09:12;6.00;;;1.13;;
36411;SDS011;22445;52.100;5.176;2023-04-25T07:11:38;5.10;;;1.48;;
36411;SDS011;22445;52.100;5.176;2023-04-25T07:14:03;6.28;;;1.77;;
36411;SDS011;22445;52.100;5.176;2023-04-25T07:16:29;6.38;;;1.30;;
36411;SDS011;22445;52.100;5.176;2023-04-25T07:18:55;5.18;;;1.00;;
36411;SDS011;22445;52.100;5.176;2023-04-25T07:21:20;7.20;;;1.75;;
36411;SDS011;22445;52.100;5.176;2023-04-25T07:23:46;5.78;;;1.50;;
36411;SDS011;22445;52.100;5.176;2023-04-25T07:26:12;9.68;;;2.20;;
36411;SDS011;22445;52.100;5.176;2023-04-25T07:28:38;5.95;;;1.33;;
36411;SDS011;22445;52.100;5.176;2023-04-25T07:31:03;7.65;;;1.50;;
36411;SDS011;22445;52.100;5.176;2023-04-25T07:33:30;4.13;;;1.00;;
36411;SDS011;22445;52.100;5.176;2023-04-25T07:35:56;5.38;;;0.93;;
36411;SDS011;22445;52.100;5.176;2023-04-25T07:38:21;5.63;;;1.08;;
36411;SDS011;22445;52.100;5.176;2023-04-25T07:40:47;5.00;;;1.05;;
36411;SDS011;22445;52.100;5.176;2023-04-25T07:43:16;5.90;;;1.05;;
36411;SDS011;22445;52.100;5.176;2023-04-25T07:45:45;6.80;;;0.80;;
36411;SDS011;22445;52.100;5.176;2023-04-25T07:48:13;3.78;;;0.75;;
36411;SDS011;22445;52.100;5.176;2023-04-25T07:50:42;6.22;;;1.13;;
36411;SDS011;22445;52.100;5.176;2023-04-25T07:53:08;6.32;;;1.13;;
36411;SDS011;22445;52.100;5.176;2023-04-25T07:55:33;5.75;;;0.90;;
36411;SDS011;22445;52.100;5.176;2023-04-25T07:57:59;3.13;;;1.05;;
36411;SDS011;22445;52.100;5.176;2023-04-25T08:00:24;7.63;;;1.30;;
36411;SDS011;22445;52.100;5.176;2023-04-25T08:02:50;7.18;;;0.75;;
36411;SDS011;22445;52.100;5.176;2023-04-25T08:05:16;6.13;;;1.00;;
36411;SDS011;22445;52.100;5.176;2023-04-25T08:07:41;5.22;;;1.15;;
36411;SDS011;22445;52.100;5.176;2023-04-25T08:10:07;5.20;;;1.05;;
36411;SDS011;22445;52.100;5.176;2023-04-25T08:12:33;6.13;;;0.98;;
36411;SDS011;22445;52.100;5.176;2023-04-25T08:14:59;6.78;;;0.80;;
36411;SDS011;22445;52.100;5.176;2023-04-25T08:17:24;4.43;;;0.98;;
36411;SDS011;22445;52.100;5.176;2023-04-25T08:19:50;3.20;;;0.98;;
36411;SDS011;22445;52.100;5.176;2023-04-25T08:22:15;3.78;;;1.05;;
36411;SDS011;22445;52.100;5.176;2023-04-25T08:24:41;3.92;;;0.73;;
36411;SDS011;22445;52.100;5.176;2023-04-25T08:27:07;4.40;;;1.05;;
36411;SDS011;22445;52.100;5.176;2023-04-25T08:29:33;5.45;;;1.00;;
36411;SDS011;22445;52.100;5.176;2023-04-25T08:31:59;3.67;;;1.25;;
36411;SDS011;22445;52.100;5.176;2023-04-25T08:34:24;4.22;;;1.13;;
36411;SDS011;22445;52.100;5.176;2023-04-25T08:36:51;4.05;;;0.98;;
36411;SDS011;22445;52.100;5.176;2023-04-25T08:39:17;5.28;;;0.93;;
36411;SDS011;22445;52.100;5.176;2023-04-25T08:41:42;3.78;;;0.98;;
36411;SDS011;22445;52.100;5.176;2023-04-25T08:44:12;4.82;;;1.05;;
36411;SDS011;22445;52.100;5.176;2023-04-25T08:46:38;3.88;;;0.88;;
36411;SDS011;22445;52.100;5.176;2023-04-25T08:49:05;5.55;;;1.00;;
36411;SDS011;22445;52.100;5.176;2023-04-25T08:51:32;5.97;;;1.05;;
36411;SDS011;22445;52.100;5.176;2023-04-25T08:54:07;7.18;;;1.42;;
36411;SDS011;22445;52.100;5.176;2023-04-25T08:56:35;6.22;;;1.17;;
36411;SDS011;22445;52.100;5.176;2023-04-25T08:59:01;1.77;;;0.90;;
36411;SDS011;22445;52.100;5.176;2023-04-25T09:01:27;5.32;;;1.13;;
36411;SDS011;22445;52.100;5.176;2023-04-25T09:03:53;3.25;;;0.80;;
36411;SDS011;22445;52.100;5.176;2023-04-25T09:06:19;3.03;;;0.80;;
36411;SDS011;22445;52.100;5.176;2023-04-25T09:08:45;1.85;;;0.52;;
36411;SDS011;22445;52.100;5.176;2023-04-25T09:11:12;1.40;;;0.50;;
36411;SDS011;22445;52.100;5.176;2023-04-25T09:13:39;3.25;;;0.47;;
36411;SDS011;22445;52.100;5.176;2023-04-25T09:16:04;3.08;;;0.88;;
36411;SDS011;22445;52.100;5.176;2023-04-25T09:18:30;4.28;;;0.82;;
36411;SDS011;22445;52.100;5.176;2023-04-25T09:21:10;4.90;;;0.80;;
36411;SDS011;22445;52.100;5.176;2023-04-25T09:23:40;2.33;;;0.55;;
36411;SDS011;22445;52.100;5.176;2023-04-25T09:26:07;5.30;;;0.60;;
36411;SDS011;22445;52.100;5.176;2023-04-25T09:28:33;3.25;;;0.70;;
36411;SDS011;22445;52.100;5.176;2023-04-25T09:31:00;5.53;;;1.02;;
36411;SDS011;22445;52.100;5.176;2023-04-25T09:33:27;2.78;;;0.88;;
36411;SDS011;22445;52.100;5.176;2023-04-25T09:35:53;5.13;;;1.02;;
36411;SDS011;22445;52.100;5.176;2023-04-25T09:38:20;3.92;;;0.93;;
36411;SDS011;22445;52.100;5.176;2023-04-25T09:40:46;2.97;;;0.73;;
36411;SDS011;22445;52.100;5.176;2023-04-25T09:43:24;4.07;;;0.77;;
36411;SDS011;22445;52.100;5.176;2023-04-25T09:45:50;2.95;;;0.75;;
36411;SDS011;22445;52.100;5.176;2023-04-25T09:48:20;3.10;;;1.00;;
36411;SDS011;22445;52.100;5.176;2023-04-25T09:53:35;3.08;;;0.90;;
36411;SDS011;22445;52.100;5.176;2023-04-25T09:56:06;4.10;;;1.00;;
36411;SDS011;22445;52.100;5.176;2023-04-25T09:58:33;2.47;;;0.63;;
36411;SDS011;22445;52.100;5.176;2023-04-25T10:01:00;3.85;;;0.73;;
36411;SDS011;22445;52.100;5.176;2023-04-25T10:03:30;4.60;;;0.63;;
36411;SDS011;22445;52.100;5.176;2023-04-25T10:05:58;3.60;;;0.77;;
36411;SDS011;22445;52.100;5.176;2023-04-25T10:08:25;5.38;;;0.70;;
36411;SDS011;22445;52.100;5.176;2023-04-25T10:10:57;4.90;;;0.77;;
36411;SDS011;22445;52.100;5.176;2023-04-25T10:13:31;1.88;;;0.50;;
36411;SDS011;22445;52.100;5.176;2023-04-25T10:16:03;3.10;;;0.65;;
36411;SDS011;22445;52.100;5.176;2023-04-25T10:18:29;4.13;;;0.90;;
36411;SDS011;22445;52.100;5.176;2023-04-25T10:20:56;1.17;;;0.40;;
36411;SDS011;22445;52.100;5.176;2023-04-25T10:23:23;3.13;;;0.77;;
36411;SDS011;22445;52.100;5.176;2023-04-25T10:25:49;2.35;;;0.70;;
36411;SDS011;22445;52.100;5.176;2023-04-25T10:28:16;1.58;;;0.60;;
36411;SDS011;22445;52.100;5.176;2023-04-25T10:33:34;3.78;;;0.60;;
36411;SDS011;22445;52.100;5.176;2023-04-25T10:36:14;2.45;;;0.90;;
36411;SDS011;22445;52.100;5.176;2023-04-25T10:38:43;2.00;;;0.70;;
36411;SDS011;22445;52.100;5.176;2023-04-25T10:41:10;4.15;;;0.77;;
36411;SDS011;22445;52.100;5.176;2023-04-25T10:43:38;3.33;;;0.75;;
36411;SDS011;22445;52.100;5.176;2023-04-25T10:46:14;3.42;;;0.93;;
36411;SDS011;22445;52.100;5.176;2023-04-25T10:51:30;4.22;;;0.70;;
36411;SDS011;22445;52.100;5.176;2023-04-25T10:54:03;2.58;;;0.90;;
36411;SDS011;22445;52.100;5.176;2023-04-25T10:56:31;1.73;;;0.45;;
36411;SDS011;22445;52.100;5.176;2023-04-25T10:59:08;5.07;;;1.00;;
36411;SDS011;22445;52.100;5.176;2023-04-25T11:01:45;3.70;;;0.95;;
36411;SDS011;22445;52.100;5.176;2023-04-25T11:04:22;3.28;;;1.13;;
36411;SDS011;22445;52.100;5.176;2023-04-25T11:10:01;6.47;;;1.50;;
36411;SDS011;22445;52.100;5.176;2023-04-25T11:12:29;4.82;;;1.15;;
36411;SDS011;22445;52.100;5.176;2023-04-25T11:14:59;4.07;;;0.50;;
36411;SDS011;22445;52.100;5.176;2023-04-25T11:17:28;2.03;;;0.70;;
36411;SDS011;22445;52.100;5.176;2023-04-25T11:19:54;2.75;;;0.90;;
36411;SDS011;22445;52.100;5.176;2023-04-25T11:22:21;2.05;;;0.77;;
36411;SDS011;22445;52.100;5.176;2023-04-25T11:24:47;3.03;;;0.70;;
36411;SDS011;22445;52.100;5.176;2023-04-25T11:27:13;3.45;;;0.63;;
36411;SDS011;22445;52.100;5.176;2023-04-25T11:29:39;1.80;;;0.50;;
36411;SDS011;22445;52.100;5.176;2023-04-25T11:32:04;5.53;;;0.73;;
36411;SDS011;22445;52.100;5.176;2023-04-25T11:34:31;4.78;;;0.88;;
36411;SDS011;22445;52.100;5.176;2023-04-25T11:36:58;3.65;;;0.77;;
36411;SDS011;22445;52.100;5.176;2023-04-25T11:39:25;4.00;;;0.70;;
36411;SDS011;22445;52.100;5.176;2023-04-25T11:41:52;2.55;;;0.82;;
36411;SDS011;22445;52.100;5.176;2023-04-25T11:44:18;5.40;;;0.50;;
36411;SDS011;22445;52.100;5.176;2023-04-25T11:46:45;3.85;;;0.90;;
36411;SDS011;22445;52.100;5.176;2023-04-25T11:49:11;4.15;;;0.82;;
36411;SDS011;22445;52.100;5.176;2023-04-25T11:51:38;5.90;;;0.70;;
36411;SDS011;22445;52.100;5.176;2023-04-25T11:54:08;2.13;;;0.65;;
36411;SDS011;22445;52.100;5.176;2023-04-25T11:56:34;2.13;;;0.60;;
36411;SDS011;22445;52.100;5.176;2023-04-25T11:59:00;1.40;;;0.40;;
36411;SDS011;22445;52.100;5.176;2023-04-25T12:01:32;1.85;;;0.60;;
36411;SDS011;22445;52.100;5.176;2023-04-25T12:04:09;4.80;;;0.60;;
36411;SDS011;22445;52.100;5.176;2023-04-25T12:06:45;3.38;;;0.60;;
36411;SDS011;22445;52.100;5.176;2023-04-25T12:09:13;1.45;;;0.60;;
36411;SDS011;22445;52.100;5.176;2023-04-25T12:14:29;1.83;;;0.68;;
36411;SDS011;22445;52.100;5.176;2023-04-25T12:16:58;1.83;;;0.52;;
36411;SDS011;22445;52.100;5.176;2023-04-25T12:19:24;1.55;;;0.50;;
36411;SDS011;22445;52.100;5.176;2023-04-25T12:21:51;2.28;;;0.73;;
36411;SDS011;22445;52.100;5.176;2023-04-25T12:24:17;1.15;;;0.40;;
36411;SDS011;22445;52.100;5.176;2023-04-25T12:26:52;3.03;;;0.60;;
36411;SDS011;22445;52.100;5.176;2023-04-25T12:29:25;2.35;;;0.50;;
36411;SDS011;22445;52.100;5.176;2023-04-25T12:31:52;2.78;;;0.73;;
36411;SDS011;22445;52.100;5.176;2023-04-25T12:34:19;2.33;;;0.60;;
36411;SDS011;22445;52.100;5.176;2023-04-25T12:36:46;1.80;;;0.73;;
36411;SDS011;22445;52.100;5.176;2023-04-25T12:39:18;6.43;;;1.35;;
36411;SDS011;22445;52.100;5.176;2023-04-25T12:41:45;1.63;;;0.80;;
36411;SDS011;22445;52.100;5.176;2023-04-25T12:44:11;5.85;;;0.80;;
36411;SDS011;22445;52.100;5.176;2023-04-25T12:46:37;5.97;;;0.63;;
36411;SDS011;22445;52.100;5.176;2023-04-25T12:49:04;4.20;;;0.98;;
36411;SDS011;22445;52.100;5.176;2023-04-25T12:51:31;2.38;;;0.80;;
36411;SDS011;22445;52.100;5.176;2023-04-25T12:53:58;2.53;;;0.77;;
36411;SDS011;22445;52.100;5.176;2023-04-25T12:56:25;4.80;;;0.90;;
36411;SDS011;22445;52.100;5.176;2023-04-25T12:58:52;3.28;;;0.70;;
36411;SDS011;22445;52.100;5.176;2023-04-25T13:01:18;5.63;;;0.85;;
36411;SDS011;22445;52.100;5.176;2023-04-25T13:03:45;1.48;;;0.50;;
36411;SDS011;22445;52.100;5.176;2023-04-25T13:06:11;6.50;;;0.98;;
36411;SDS011;22445;52.100;5.176;2023-04-25T13:08:38;3.70;;;0.80;;
36411;SDS011;22445;52.100;5.176;2023-04-25T13:11:04;8.32;;;0.90;;
36411;SDS011;22445;52.100;5.176;2023-04-25T13:13:30;5.80;;;1.20;;
36411;SDS011;22445;52.100;5.176;2023-04-25T13:15:57;4.53;;;0.88;;
36411;SDS011;22445;52.100;5.176;2023-04-25T13:18:23;2.75;;;0.60;;
36411;SDS011;22445;52.100;5.176;2023-04-25T13:20:52;2.47;;;0.88;;
36411;SDS011;22445;52.100;5.176;2023-04-25T13:23:20;4.22;;;0.80;;
36411;SDS011;22445;52.100;5.176;2023-04-25T13:25:46;2.28;;;0.82;;
36411;SDS011;22445;52.100;5.176;2023-04-25T13:28:12;2.20;;;0.70;;
36411;SDS011;22445;52.100;5.176;2023-04-25T13:30:39;2.83;;;0.70;;
36411;SDS011;22445;52.100;5.176;2023-04-25T13:33:05;2.15;;;0.73;;
36411;SDS011;22445;52.100;5.176;2023-04-25T13:35:32;3.60;;;1.02;;
36411;SDS011;22445;52.100;5.176;2023-04-25T13:37:59;3.80;;;1.02;;
36411;SDS011;22445;52.100;5.176;2023-04-25T13:40:25;2.58;;;0.80;;
36411;SDS011;22445;52.100;5.176;2023-04-25T13:42:52;3.70;;;0.80;;
36411;SDS011;22445;52.100;5.176;2023-04-25T13:45:18;5.53;;;1.25;;
36411;SDS011;22445;52.100;5.176;2023-04-25T13:47:48;1.63;;;0.65;;
36411;SDS011;22445;52.100;5.176;2023-04-25T13:50:14;2.28;;;0.70;;
36411;SDS011;22445;52.100;5.176;2023-04-25T13:52:40;5.32;;;1.10;;
36411;SDS011;22445;52.100;5.176;2023-04-25T13:55:08;3.97;;;0.98;;
36411;SDS011;22445;52.100;5.176;2023-04-25T13:57:35;3.40;;;0.98;;
36411;SDS011;22445;52.100;5.176;2023-04-25T14:00:01;2.15;;;0.50;;
36411;SDS011;22445;52.100;5.176;2023-04-25T14:02:37;5.75;;;1.05;;
36411;SDS011;22445;52.100;5.176;2023-04-25T14:05:03;5.53;;;0.80;;
36411;SDS011;22445;52.100;5.176;2023-04-25T14:07:29;2.53;;;0.73;;
36411;SDS011;22445;52.100;5.176;2023-04-25T14:09:55;2.75;;;0.65;;
36411;SDS011;22445;52.100;5.176;2023-04-25T14:12:24;2.63;;;1.13;;
36411;SDS011;22445;52.100;5.176;2023-04-25T14:14:50;1.83;;;0.88;;
36411;SDS011;22445;52.100;5.176;2023-04-25T14:17:17;4.30;;;1.08;;
36411;SDS011;22445;52.100;5.176;2023-04-25T14:19:43;2.45;;;0.73;;
36411;SDS011;22445;52.100;5.176;2023-04-25T14:22:10;4.25;;;1.10;;
36411;SDS011;22445;52.100;5.176;2023-04-25T14:24:36;3.15;;;1.10;;
36411;SDS011;22445;52.100;5.176;2023-04-25T14:27:02;2.67;;;0.88;;
36411;SDS011;22445;52.100;5.176;2023-04-25T14:29:29;6.13;;;1.00;;
36411;SDS011;22445;52.100;5.176;2023-04-25T14:31:55;3.28;;;0.60;;
36411;SDS011;22445;52.100;5.176;2023-04-25T14:34:22;3.85;;;0.70;;
36411;SDS011;22445;52.100;5.176;2023-04-25T14:36:48;4.07;;;1.30;;
36411;SDS011;22445;52.100;5.176;2023-04-25T14:39:14;5.38;;;0.85;;
36411;SDS011;22445;52.100;5.176;2023-04-25T14:41:40;3.05;;;0.93;;
36411;SDS011;22445;52.100;5.176;2023-04-25T14:44:05;5.40;;;1.48;;
36411;SDS011;22445;52.100;5.176;2023-04-25T14:46:31;4.38;;;0.82;;
36411;SDS011;22445;52.100;5.176;2023-04-25T14:48:56;2.83;;;0.95;;
36411;SDS011;22445;52.100;5.176;2023-04-25T14:51:22;3.42;;;0.80;;
36411;SDS011;22445;52.100;5.176;2023-04-25T14:53:48;2.40;;;0.65;;